createdAt,value
2022-08-04T00:01:57.108Z,2.90
2022-08-04T00:04:33.576Z,2.50
2022-08-04T00:07:09.338Z,2.77
2022-08-04T00:09:43.494Z,2.83
2022-08-04T00:12:14.280Z,2.40
2022-08-04T00:14:49.077Z,2.50
2022-08-04T00:17:21.147Z,2.77
2022-08-04T00:19:54.136Z,2.60
2022-08-04T00:22:27.716Z,3.27
2022-08-04T00:24:56.693Z,2.53
2022-08-04T00:27:24.648Z,2.83
2022-08-04T00:29:53.023Z,2.67
2022-08-04T00:32:33.939Z,3.10
2022-08-04T00:35:03.971Z,3.20
2022-08-04T00:37:33.972Z,3.10
2022-08-04T00:40:04.801Z,2.90
2022-08-04T00:42:58.413Z,2.97
2022-08-04T00:46:10.930Z,2.90
2022-08-04T00:48:54.203Z,3.00
2022-08-04T00:51:32.562Z,2.90
2022-08-04T00:54:07.930Z,3.07
2022-08-04T00:57:00.951Z,2.90
2022-08-04T00:59:44.702Z,3.13
2022-08-04T01:02:23.540Z,2.80
2022-08-04T01:05:03.425Z,3.17
2022-08-04T01:08:08.643Z,3.00
2022-08-04T01:10:46.880Z,2.93
2022-08-04T01:13:33.142Z,3.13
2022-08-04T01:16:05.209Z,3.40
2022-08-04T01:18:42.571Z,3.20
2022-08-04T01:21:44.537Z,3.20
2022-08-04T01:24:30.537Z,3.20
2022-08-04T01:27:03.924Z,3.60
2022-08-04T01:29:46.389Z,2.53
2022-08-04T01:32:26.212Z,2.80
2022-08-04T01:35:01.893Z,2.20
2022-08-04T01:37:43.352Z,3.20
2022-08-04T01:40:15.315Z,3.37
2022-08-04T01:42:45.485Z,3.23
2022-08-04T01:45:17.192Z,3.00
2022-08-04T01:47:50.710Z,3.20
2022-08-04T01:50:18.509Z,3.13
2022-08-04T01:52:50.999Z,3.17
2022-08-04T01:55:19.953Z,3.40
2022-08-04T01:57:50.554Z,3.23
2022-08-04T02:00:22.125Z,3.40
2022-08-04T02:02:51.826Z,3.63
2022-08-04T02:05:22.872Z,2.87
2022-08-04T02:08:14.828Z,3.07
2022-08-04T02:10:59.186Z,3.43
2022-08-04T02:13:40.184Z,2.53
2022-08-04T02:16:17.479Z,2.37
2022-08-04T02:18:57.663Z,2.77
2022-08-04T02:21:42.447Z,3.00
2022-08-04T02:24:17.853Z,3.03
2022-08-04T02:26:51.354Z,2.90
2022-08-04T02:29:21.837Z,3.13
2022-08-04T02:31:58.683Z,2.80
2022-08-04T02:34:30.034Z,2.70
2022-08-04T02:37:00.124Z,3.10
2022-08-04T02:39:48.121Z,3.37
2022-08-04T02:42:18.066Z,3.03
2022-08-04T02:44:51.259Z,2.70
2022-08-04T02:47:22.557Z,3.20
2022-08-04T02:49:52.780Z,2.90
2022-08-04T02:52:21.547Z,3.10
2022-08-04T02:54:54.339Z,3.53
2022-08-04T02:57:26.093Z,3.33
2022-08-04T03:00:06.723Z,3.57
2022-08-04T03:02:51.696Z,3.07
2022-08-04T03:05:22.214Z,3.30
2022-08-04T03:08:08.800Z,3.30
2022-08-04T03:11:04.356Z,3.40
2022-08-04T03:13:53.908Z,3.90
2022-08-04T03:16:43.359Z,3.60
2022-08-04T03:19:38.101Z,3.40
2022-08-04T03:22:24.995Z,3.43
2022-08-04T03:25:26.110Z,3.67
2022-08-04T03:28:33.313Z,2.93
2022-08-04T03:31:24.666Z,3.20
2022-08-04T03:34:16.058Z,3.37
2022-08-04T03:37:26.725Z,3.00
2022-08-04T03:40:45.407Z,3.17
2022-08-04T03:43:57.691Z,3.20
2022-08-04T03:46:48.022Z,3.67
2022-08-04T03:49:52.063Z,3.40
2022-08-04T03:52:59.926Z,3.03
2022-08-04T03:55:45.822Z,2.80
2022-08-04T03:58:50.418Z,2.87
2022-08-04T04:02:01.387Z,3.00
2022-08-04T04:04:47.972Z,3.10
2022-08-04T04:07:48.864Z,3.00
2022-08-04T04:10:35.644Z,3.37
2022-08-04T04:13:32.371Z,3.10
2022-08-04T04:16:24.194Z,3.03
2022-08-04T04:19:25.248Z,2.97
2022-08-04T04:22:04.797Z,3.03
2022-08-04T04:24:50.716Z,3.30
2022-08-04T04:27:31.487Z,3.00
2022-08-04T04:30:06.550Z,3.30
2022-08-04T04:32:53.892Z,2.87
2022-08-04T04:35:32.476Z,3.30
2022-08-04T04:38:32.634Z,3.00
2022-08-04T04:41:19.866Z,3.00
2022-08-04T04:44:13.115Z,3.27
2022-08-04T04:46:47.043Z,2.97
2022-08-04T04:49:25.280Z,3.20
2022-08-04T04:52:01.388Z,3.10
2022-08-04T04:54:35.565Z,3.10
2022-08-04T04:57:13.036Z,2.93
2022-08-04T04:59:57.883Z,3.20
2022-08-04T05:03:06.093Z,3.63
2022-08-04T05:05:54.503Z,2.77
2022-08-04T05:08:53.895Z,3.50
2022-08-04T05:11:46.463Z,3.17
2022-08-04T05:14:36.110Z,3.23
2022-08-04T05:17:16.905Z,2.90
2022-08-04T05:19:54.841Z,3.50
2022-08-04T05:22:26.712Z,3.33
2022-08-04T05:25:04.073Z,3.27
2022-08-04T05:30:04.385Z,2.97
2022-08-04T05:32:39.493Z,2.90
2022-08-04T05:35:10.937Z,3.53
2022-08-04T05:37:41.555Z,3.40
2022-08-04T05:40:12.077Z,2.97
2022-08-04T05:42:42.133Z,2.67
2022-08-04T05:45:12.153Z,3.33
2022-08-04T05:47:40.296Z,2.67
2022-08-04T05:50:09.826Z,2.70
2022-08-04T05:52:38.965Z,3.47
2022-08-04T05:55:08.612Z,3.50
2022-08-04T05:57:37.593Z,3.60
2022-08-04T06:00:38.495Z,3.00
2022-08-04T06:02:58.975Z,3.43
2022-08-04T06:05:28.031Z,3.63
2022-08-04T06:08:12.459Z,3.23
2022-08-04T06:10:43.806Z,3.37
2022-08-04T06:13:47.979Z,3.03
2022-08-04T06:16:03.838Z,3.30
2022-08-04T06:19:59.898Z,3.90
2022-08-04T06:21:27.978Z,3.47
2022-08-04T06:24:02.333Z,3.80
2022-08-04T06:26:34.007Z,3.63
2022-08-04T06:29:03.169Z,3.37
2022-08-04T06:32:30.316Z,4.03
2022-08-04T06:34:36.744Z,3.30
2022-08-04T06:37:05.258Z,3.33
2022-08-04T06:39:34.525Z,3.60
2022-08-04T06:42:22.356Z,3.33
2022-08-04T06:44:52.716Z,3.70
2022-08-04T06:47:22.328Z,3.00
2022-08-04T06:51:26.317Z,3.43
2022-08-04T06:52:45.707Z,3.60
2022-08-04T06:55:14.451Z,3.90
2022-08-04T06:57:43.067Z,3.33
2022-08-04T07:00:14.353Z,3.30
2022-08-04T07:02:46.943Z,3.30
2022-08-04T07:05:17.628Z,2.83
2022-08-04T07:07:56.727Z,3.10
2022-08-04T07:10:26.206Z,3.17
2022-08-04T07:13:09.547Z,3.07
2022-08-04T07:15:40.074Z,3.37
2022-08-04T07:18:07.985Z,3.63
2022-08-04T07:20:37.210Z,3.00
2022-08-04T07:23:05.575Z,3.10
2022-08-04T07:25:59.865Z,3.20
2022-08-04T07:28:22.999Z,2.70
2022-08-04T07:30:51.286Z,3.60
2022-08-04T07:33:19.559Z,3.23
2022-08-04T07:36:05.579Z,3.20
2022-08-04T07:38:48.110Z,3.70
2022-08-04T07:41:39.339Z,2.90
2022-08-04T07:44:09.183Z,2.97
2022-08-04T07:46:37.541Z,2.73
2022-08-04T07:49:06.078Z,2.60
2022-08-04T07:51:37.298Z,2.50
2022-08-04T07:54:06.207Z,2.50
2022-08-04T07:56:35.211Z,2.97
2022-08-04T07:59:04.562Z,2.23
2022-08-04T08:01:32.387Z,2.90
2022-08-04T08:04:02.024Z,2.37
2022-08-04T08:06:34.737Z,2.47
2022-08-04T08:09:13.852Z,3.13
2022-08-04T08:12:35.766Z,2.90
2022-08-04T08:14:31.689Z,2.80
2022-08-04T08:17:01.641Z,2.47
2022-08-04T08:19:29.762Z,2.53
2022-08-04T08:21:58.946Z,3.30
2022-08-04T08:24:30.766Z,2.60
2022-08-04T08:27:00.115Z,2.50
2022-08-04T08:29:29.771Z,3.07
2022-08-04T08:32:02.651Z,3.27
2022-08-04T08:34:36.697Z,3.57
2022-08-04T08:37:13.271Z,2.60
2022-08-04T08:39:46.991Z,3.00
2022-08-04T08:42:39.368Z,2.83
2022-08-04T08:45:36.880Z,3.23
2022-08-04T08:48:37.154Z,2.30
2022-08-04T08:51:21.931Z,2.60
2022-08-04T08:54:04.309Z,3.13
2022-08-04T08:56:45.939Z,3.03
2022-08-04T08:59:50.526Z,3.07
2022-08-04T09:02:44.876Z,2.67
2022-08-04T09:05:28.143Z,2.93
2022-08-04T09:08:11.350Z,2.90
2022-08-04T09:10:45.062Z,3.07
2022-08-04T09:13:21.279Z,3.00
2022-08-04T09:15:58.316Z,2.83
2022-08-04T09:18:32.159Z,2.80
2022-08-04T09:21:05.483Z,2.80
2022-08-04T09:23:44.960Z,2.53
2022-08-04T09:26:21.378Z,2.70
2022-08-04T09:28:55.697Z,2.40
2022-08-04T09:31:49.054Z,2.77
2022-08-04T09:34:28.962Z,3.00
2022-08-04T09:37:05.629Z,3.30
2022-08-04T09:39:44.509Z,2.80
2022-08-04T09:42:29.427Z,3.17
2022-08-04T09:45:08.427Z,3.10
2022-08-04T09:47:48.865Z,2.90
2022-08-04T09:50:27.539Z,2.53
2022-08-04T09:53:02.606Z,2.50
2022-08-04T09:55:53.439Z,2.77
2022-08-04T09:58:29.409Z,2.50
2022-08-04T10:01:03.035Z,2.90
2022-08-04T10:03:35.542Z,2.97
2022-08-04T10:06:16.486Z,3.40
2022-08-04T10:09:02.189Z,2.30
2022-08-04T10:11:55.343Z,2.70
2022-08-04T10:14:38.666Z,2.63
2022-08-04T10:17:21.701Z,2.83
2022-08-04T10:20:04.087Z,2.40
2022-08-04T10:22:55.435Z,2.83
2022-08-04T10:25:37.318Z,2.37
2022-08-04T10:28:24.412Z,2.00
2022-08-04T10:30:58.726Z,2.40
2022-08-04T10:33:34.030Z,2.33
2022-08-04T10:36:05.711Z,2.20
2022-08-04T10:38:40.748Z,2.50
2022-08-04T10:41:14.213Z,2.43
2022-08-04T10:43:47.605Z,2.60
2022-08-04T10:46:19.250Z,2.50
2022-08-04T10:48:55.375Z,2.50
2022-08-04T10:51:31.063Z,2.40
2022-08-04T10:54:26.589Z,2.40
2022-08-04T10:56:59.017Z,2.80
2022-08-04T10:59:30.968Z,2.23
2022-08-04T11:02:15.004Z,2.50
2022-08-04T11:04:48.912Z,2.47
2022-08-04T11:07:18.667Z,2.60
2022-08-04T11:09:47.010Z,2.90
2022-08-04T11:12:20.394Z,2.33
2022-08-04T11:14:57.433Z,2.40
2022-08-04T11:17:29.067Z,2.13
2022-08-04T11:20:33.423Z,2.60
2022-08-04T11:23:04.827Z,2.60
2022-08-04T11:25:37.465Z,2.50
2022-08-04T11:28:12.257Z,2.40
2022-08-04T11:30:48.669Z,2.50
2022-08-04T11:33:33.376Z,2.57
2022-08-04T11:36:15.514Z,2.40
2022-08-04T11:38:52.135Z,3.33
2022-08-04T11:41:23.467Z,2.20
2022-08-04T11:44:02.467Z,2.17
2022-08-04T11:46:39.009Z,2.20
2022-08-04T11:49:09.470Z,2.43
2022-08-04T11:51:40.712Z,2.40
2022-08-04T11:54:08.562Z,4.60
2022-08-04T11:56:39.115Z,2.40
2022-08-04T11:59:08.785Z,2.00
2022-08-04T12:01:45.332Z,2.00
2022-08-04T12:04:26.778Z,2.33
2022-08-04T12:09:59.894Z,2.40
2022-08-04T12:12:38.907Z,2.47
2022-08-04T12:15:21.357Z,2.73
2022-08-04T12:17:58.884Z,2.50
2022-08-04T12:20:40.704Z,2.60
2022-08-04T12:23:18.655Z,2.80
2022-08-04T12:25:54.327Z,2.40
2022-08-04T12:28:28.275Z,2.20
2022-08-04T12:31:08.378Z,2.40
2022-08-04T12:34:03.841Z,2.70
2022-08-04T12:36:40.103Z,3.40
2022-08-04T12:39:13.036Z,2.67
2022-08-04T12:41:43.335Z,2.80
2022-08-04T12:44:36.838Z,2.60
2022-08-04T12:47:27.071Z,2.20
2022-08-04T12:50:00.476Z,3.03
2022-08-04T12:53:00.973Z,2.57
2022-08-04T12:55:22.399Z,2.60
2022-08-04T12:57:52.137Z,2.60
2022-08-04T13:00:31.248Z,2.37
2022-08-04T13:03:09.598Z,2.90
2022-08-04T13:05:40.854Z,2.70
2022-08-04T13:08:11.886Z,2.60
2022-08-04T13:10:43.472Z,2.43
2022-08-04T13:13:17.839Z,2.70
2022-08-04T13:15:57.198Z,2.10
2022-08-04T13:18:29.990Z,2.60
2022-08-04T13:21:20.546Z,2.50
2022-08-04T13:24:10.705Z,2.20
2022-08-04T13:26:54.697Z,2.40
2022-08-04T13:29:59.267Z,2.33
2022-08-04T13:32:29.179Z,2.80
2022-08-04T13:34:58.691Z,2.23
2022-08-04T13:37:33.048Z,2.20
2022-08-04T13:40:04.009Z,2.60
2022-08-04T13:42:35.574Z,2.37
2022-08-04T13:45:07.379Z,2.60
2022-08-04T13:47:38.134Z,2.47
2022-08-04T13:50:10.997Z,2.33
2022-08-04T13:52:40.882Z,2.27
2022-08-04T13:55:09.980Z,2.77
2022-08-04T13:57:46.340Z,2.40
2022-08-04T14:00:16.949Z,2.60
2022-08-04T14:03:02.480Z,2.50
2022-08-04T14:05:59.723Z,2.40
2022-08-04T14:08:25.028Z,2.53
2022-08-04T14:10:57.694Z,2.30
2022-08-04T14:13:42.004Z,2.40
2022-08-04T14:16:18.279Z,2.10
2022-08-04T14:18:46.955Z,3.07
2022-08-04T14:21:16.416Z,2.50
2022-08-04T14:23:48.155Z,2.53
2022-08-04T14:26:32.336Z,2.70
2022-08-04T14:29:26.547Z,2.53
2022-08-04T14:32:05.970Z,2.40
2022-08-04T14:34:41.307Z,2.50
2022-08-04T14:37:18.505Z,2.30
2022-08-04T14:40:17.719Z,2.13
2022-08-04T14:42:43.913Z,2.23
2022-08-04T14:45:13.218Z,2.60
2022-08-04T14:47:51.897Z,2.50
2022-08-04T14:50:21.494Z,3.20
2022-08-04T14:52:49.299Z,2.60
2022-08-04T14:55:19.169Z,2.60
2022-08-04T14:58:36.457Z,2.60
2022-08-04T15:00:37.929Z,2.40
2022-08-04T15:03:09.056Z,2.30
2022-08-04T15:06:02.708Z,2.80
2022-08-04T15:08:31.028Z,2.40
2022-08-04T15:11:02.314Z,2.73
2022-08-04T15:13:31.261Z,2.60
2022-08-04T15:16:06.249Z,2.73
2022-08-04T15:18:37.454Z,3.00
2022-08-04T15:21:05.943Z,3.10
2022-08-04T15:23:39.291Z,2.70
2022-08-04T15:26:11.387Z,2.73
2022-08-04T15:28:42.422Z,2.87
2022-08-04T15:32:06.428Z,2.90
2022-08-04T15:34:00.393Z,3.00
2022-08-04T15:36:36.922Z,2.77
2022-08-04T15:39:13.388Z,3.07
2022-08-04T15:41:55.537Z,2.90
2022-08-04T15:44:58.665Z,2.90
2022-08-04T15:47:28.111Z,3.13
2022-08-04T15:50:08.541Z,3.33
2022-08-04T15:53:12.374Z,3.10
2022-08-04T15:55:44.067Z,3.20
2022-08-04T15:58:14.143Z,3.00
2022-08-04T16:01:15.803Z,2.83
2022-08-04T16:03:58.390Z,2.70
2022-08-04T16:06:46.120Z,4.23
2022-08-04T16:09:45.487Z,2.90
2022-08-04T16:12:55.990Z,3.00
2022-08-04T16:15:44.396Z,3.53
2022-08-04T16:18:26.669Z,3.57
2022-08-04T16:20:59.180Z,3.00
2022-08-04T16:23:54.986Z,3.00
2022-08-04T16:26:54.770Z,2.77
2022-08-04T16:29:34.153Z,3.07
2022-08-04T16:32:10.682Z,3.13
2022-08-04T16:34:49.794Z,4.17
2022-08-04T16:37:21.353Z,3.30
2022-08-04T16:39:50.575Z,3.37
2022-08-04T16:42:35.868Z,4.13
2022-08-04T16:45:12.849Z,3.50
2022-08-04T16:48:02.066Z,3.47
2022-08-04T16:50:30.460Z,3.30
2022-08-04T16:52:59.885Z,3.10
2022-08-04T16:55:29.702Z,3.27
2022-08-04T16:58:00.329Z,3.10
2022-08-04T17:00:32.888Z,3.23
2022-08-04T17:03:03.487Z,3.17
2022-08-04T17:05:38.431Z,3.17
2022-08-04T17:10:57.888Z,2.70
2022-08-04T17:14:01.873Z,3.50
2022-08-04T17:16:18.112Z,3.17
2022-08-04T17:18:48.764Z,3.33
2022-08-04T17:21:19.890Z,3.33
2022-08-04T17:24:13.185Z,3.60
2022-08-04T17:26:45.317Z,3.50
2022-08-04T17:29:20.305Z,3.07
2022-08-04T17:31:48.351Z,3.47
2022-08-04T17:34:21.104Z,3.47
2022-08-04T17:36:49.684Z,3.40
2022-08-04T17:39:23.326Z,3.40
2022-08-04T17:41:57.085Z,3.10
2022-08-04T17:44:37.836Z,3.40
2022-08-04T17:47:24.354Z,3.27
2022-08-04T17:49:53.112Z,3.90
2022-08-04T17:52:44.616Z,3.50
2022-08-04T17:55:16.278Z,3.90
2022-08-04T17:57:52.400Z,3.40
2022-08-04T18:00:21.430Z,3.40
2022-08-04T18:02:54.725Z,3.50
2022-08-04T18:06:02.023Z,3.50
2022-08-04T18:08:40.081Z,3.40
2022-08-04T18:11:08.105Z,3.37
2022-08-04T18:13:42.679Z,3.37
2022-08-04T18:16:22.139Z,3.40
2022-08-04T18:19:09.041Z,3.73
2022-08-04T18:21:46.566Z,4.30
2022-08-04T18:24:34.028Z,4.37
2022-08-04T18:27:06.308Z,3.47
2022-08-04T18:29:39.014Z,4.10
2022-08-04T18:32:07.010Z,4.00
2022-08-04T18:34:40.716Z,3.90
2022-08-04T18:40:26.655Z,3.70
2022-08-04T18:43:00.595Z,4.00
2022-08-04T18:45:34.626Z,3.73
2022-08-04T18:48:04.164Z,6.40
2022-08-04T18:51:09.715Z,3.97
2022-08-04T18:53:35.790Z,3.80
2022-08-04T18:56:06.256Z,3.87
2022-08-04T18:58:45.338Z,3.67
2022-08-04T19:01:14.261Z,4.07
2022-08-04T19:03:44.726Z,4.13
2022-08-04T19:06:16.194Z,4.50
2022-08-04T19:08:45.022Z,3.80
2022-08-04T19:11:36.959Z,5.80
2022-08-04T19:14:05.002Z,4.67
2022-08-04T19:16:34.486Z,5.23
2022-08-04T19:19:05.681Z,4.10
2022-08-04T19:22:00.538Z,3.80
2022-08-04T19:24:32.897Z,4.13
2022-08-04T19:27:06.507Z,5.00
2022-08-04T19:29:40.664Z,4.30
2022-08-04T19:32:15.841Z,4.73
2022-08-04T19:34:47.473Z,4.50
2022-08-04T19:37:56.889Z,5.07
2022-08-04T19:40:07.091Z,4.77
2022-08-04T19:42:35.066Z,4.40
2022-08-04T19:45:05.069Z,3.77
2022-08-04T19:48:16.993Z,4.67
2022-08-04T19:50:23.672Z,3.70
2022-08-04T19:52:52.571Z,4.20
2022-08-04T19:55:37.133Z,4.17
2022-08-04T19:58:07.408Z,4.00
2022-08-04T20:00:38.705Z,4.00
2022-08-04T20:03:11.797Z,4.10
2022-08-04T20:05:54.528Z,5.13
2022-08-04T20:08:25.066Z,5.00
2022-08-04T20:10:54.931Z,5.40
2022-08-04T20:13:30.555Z,4.93
2022-08-04T20:16:00.661Z,4.83
2022-08-04T20:18:36.362Z,4.50
2022-08-04T20:21:19.321Z,4.70
2022-08-04T20:23:52.300Z,4.50
2022-08-04T20:26:20.781Z,4.60
2022-08-04T20:28:52.003Z,4.63
2022-08-04T20:31:22.031Z,5.30
2022-08-04T20:33:53.826Z,4.83
2022-08-04T20:36:23.445Z,4.57
2022-08-04T20:38:52.603Z,4.87
2022-08-04T20:41:20.878Z,5.03
2022-08-04T20:43:49.689Z,5.07
2022-08-04T20:46:29.100Z,4.80
2022-08-04T20:48:59.019Z,5.07
2022-08-04T20:51:31.644Z,4.57
2022-08-04T20:54:01.257Z,4.50
2022-08-04T20:56:30.908Z,4.73
2022-08-04T20:58:59.756Z,4.37
2022-08-04T21:01:29.958Z,4.70
2022-08-04T21:04:28.020Z,4.67
2022-08-04T21:06:57.411Z,5.00
2022-08-04T21:09:36.926Z,4.57
2022-08-04T21:12:07.611Z,5.20
2022-08-04T21:14:36.154Z,4.17
2022-08-04T21:17:07.159Z,4.40
2022-08-04T21:19:37.894Z,4.63
2022-08-04T21:22:10.596Z,4.80
2022-08-04T21:24:38.999Z,5.27
2022-08-04T21:29:55.805Z,4.80
2022-08-04T21:32:27.235Z,4.47
2022-08-04T21:34:59.768Z,5.10
2022-08-04T21:37:58.091Z,5.03
2022-08-04T21:40:36.518Z,4.90
2022-08-04T21:43:04.459Z,5.10
2022-08-04T21:45:36.387Z,4.80
2022-08-04T21:48:04.694Z,5.00
2022-08-04T21:50:33.877Z,5.60
2022-08-04T21:53:01.633Z,5.30
2022-08-04T21:56:04.836Z,4.57
2022-08-04T21:58:17.089Z,4.60
2022-08-04T22:00:44.860Z,4.90
2022-08-04T22:03:52.644Z,5.00
2022-08-04T22:06:10.300Z,5.80
2022-08-04T22:08:38.824Z,4.37
2022-08-04T22:11:26.006Z,5.20
2022-08-04T22:14:10.934Z,4.93
2022-08-04T22:16:40.567Z,5.70
2022-08-04T22:19:10.822Z,4.73
2022-08-04T22:21:45.195Z,4.60
2022-08-04T22:24:15.060Z,5.10
2022-08-04T22:26:42.999Z,4.80
2022-08-04T22:29:14.521Z,4.57
2022-08-04T22:31:56.036Z,5.10
2022-08-04T22:34:25.912Z,5.10
2022-08-04T22:36:55.005Z,4.67
2022-08-04T22:39:23.506Z,5.77
2022-08-04T22:42:03.621Z,5.67
2022-08-04T22:44:33.360Z,4.80
2022-08-04T22:47:02.312Z,5.10
2022-08-04T22:49:34.232Z,4.90
2022-08-04T22:52:10.143Z,4.87
2022-08-04T22:54:47.228Z,5.20
2022-08-04T22:57:16.655Z,5.00
2022-08-04T22:59:44.511Z,4.77
2022-08-04T23:02:16.627Z,4.70
2022-08-04T23:04:44.446Z,5.00
2022-08-04T23:07:13.540Z,5.10
2022-08-04T23:09:50.685Z,5.33
2022-08-04T23:12:25.301Z,4.83
2022-08-04T23:14:54.880Z,4.73
2022-08-04T23:17:22.925Z,4.83
2022-08-04T23:19:57.477Z,4.90
2022-08-04T23:22:41.602Z,5.43
2022-08-04T23:25:15.255Z,5.20
2022-08-04T23:27:50.411Z,4.90
2022-08-04T23:30:21.982Z,5.20
2022-08-04T23:32:53.024Z,4.60
2022-08-04T23:35:22.116Z,5.63
2022-08-04T23:37:56.746Z,5.03
2022-08-04T23:40:32.398Z,5.43
2022-08-04T23:43:01.926Z,4.40
2022-08-04T23:46:07.733Z,4.70
2022-08-04T23:48:19.245Z,6.27
2022-08-04T23:50:50.041Z,5.80
2022-08-04T23:53:22.729Z,4.90
2022-08-04T23:55:50.630Z,5.20
2022-08-04T23:58:19.030Z,5.17
